Time;durP1;ratioP1;P1;durP2;ratioP2;P2;SDS_P1;SDS_P2;PMS_P1;PMS_P2;Temp;Humidity;BMP_temperature;BMP_pressure;BME280_temperature;BME280_humidity;BME280_pressure;Samples;Min_cycle;Max_cycle;Signal;HPM_P1;HPM_P2
2023/08/28 00:02:09;;;;;;;6.78;6.00;;;21.70;99.90;;;;;;5165302;28;20772;-77
2023/08/28 00:04:40;;;;;;;6.88;6.28;;;21.60;99.90;;;;;;5165342;28;20487;-74
2023/08/28 00:07:12;;;;;;;7.57;6.53;;;21.60;99.90;;;;;;5165220;28;20029;-73
2023/08/28 00:09:43;;;;;;;7.05;6.07;;;21.50;99.90;;;;;;5165317;28;20109;-77
2023/08/28 00:12:13;;;;;;;6.38;5.72;;;21.80;99.90;;;;;;5165162;28;20412;-77
2023/08/28 00:14:44;;;;;;;6.82;5.47;;;21.50;99.90;;;;;;5165242;28;20419;-74
2023/08/28 00:17:17;;;;;;;6.95;6.35;;;21.50;99.90;;;;;;5164810;28;20505;-74
2023/08/28 00:19:49;;;;;;;6.80;6.20;;;21.50;99.90;;;;;;5163816;28;20034;-75
2023/08/28 00:22:19;;;;;;;8.57;5.72;;;21.50;99.90;;;;;;5162349;28;20031;-75
2023/08/28 00:24:50;;;;;;;6.68;6.15;;;21.40;99.90;;;;;;5163772;28;20666;-73
2023/08/28 00:27:21;;;;;;;7.20;6.47;;;21.30;99.90;;;;;;5162366;28;20602;-74
2023/08/28 00:29:52;;;;;;;7.43;6.55;;;21.30;99.90;;;;;;5163571;28;20027;-75
2023/08/28 00:32:24;;;;;;;7.88;6.40;;;21.30;99.90;;;;;;5163660;28;20491;-73
2023/08/28 00:34:55;;;;;;;7.47;6.50;;;21.50;99.90;;;;;;5163882;28;20034;-73
2023/08/28 00:37:26;;;;;;;6.72;6.10;;;21.30;99.90;;;;;;5164843;28;20041;-74
2023/08/28 00:39:57;;;;;;;7.25;6.60;;;21.30;99.90;;;;;;5164614;28;20031;-76
2023/08/28 00:42:28;;;;;;;7.95;7.15;;;21.20;99.90;;;;;;5164916;28;20029;-77
2023/08/28 00:44:59;;;;;;;7.70;6.97;;;21.10;99.90;;;;;;5165017;28;20019;-75
2023/08/28 00:47:29;;;;;;;7.55;6.88;;;21.00;99.90;;;;;;5164973;28;20441;-76
2023/08/28 00:50:02;;;;;;;13.70;6.60;;;21.20;99.90;;;;;;5164852;28;20699;-74
2023/08/28 00:52:33;;;;;;;7.35;6.68;;;21.20;99.90;;;;;;5164759;28;20061;-73
2023/08/28 00:55:05;;;;;;;7.88;7.07;;;21.20;99.90;;;;;;5164820;28;20022;-73
2023/08/28 00:57:36;;;;;;;7.22;6.53;;;21.10;99.90;;;;;;5163459;28;20478;-74
2023/08/28 01:00:10;;;;;;;8.07;7.38;;;21.00;99.90;;;;;;5164659;28;20027;-73
2023/08/28 01:02:41;;;;;;;7.85;7.15;;;20.90;99.90;;;;;;5165265;28;20367;-75
2023/08/28 01:05:12;;;;;;;11.93;7.88;;;21.00;99.90;;;;;;5168612;28;20038;-77
2023/08/28 01:07:49;;;;;;;7.88;7.07;;;21.10;99.90;;;;;;5168525;28;20850;-76
2023/08/28 01:10:30;;;;;;;7.55;6.85;;;21.00;99.90;;;;;;5167203;28;20605;-76
2023/08/28 01:13:15;;;;;;;6.70;6.15;;;21.10;99.90;;;;;;5166362;28;20041;-74
2023/08/28 01:15:47;;;;;;;6.85;6.15;;;21.00;99.90;;;;;;5167996;28;20030;-73
2023/08/28 01:18:19;;;;;;;6.40;5.80;;;21.10;99.90;;;;;;5166893;28;20116;-73
2023/08/28 01:20:51;;;;;;;6.80;6.20;;;21.00;99.90;;;;;;5167228;28;20030;-75
2023/08/28 01:23:31;;;;;;;6.68;6.07;;;21.00;99.90;;;;;;5165687;28;20029;-77
2023/08/28 01:26:02;;;;;;;6.50;5.90;;;21.00;99.90;;;;;;5166911;28;20113;-75
2023/08/28 01:28:33;;;;;;;5.95;5.32;;;20.90;99.90;;;;;;5165485;28;20026;-73
2023/08/28 01:31:04;;;;;;;6.68;5.97;;;20.90;99.90;;;;;;5165790;28;20046;-76
2023/08/28 01:33:35;;;;;;;6.55;5.75;;;20.70;99.90;;;;;;5168526;28;20026;-74
2023/08/28 01:36:15;;;;;;;8.00;5.97;;;20.80;99.90;;;;;;5167028;28;20481;-74
2023/08/28 01:39:08;;;;;;;6.75;6.15;;;20.70;99.90;;;;;;5168239;28;20475;-74
2023/08/28 01:41:40;;;;;;;6.75;5.90;;;20.80;99.90;;;;;;5168150;28;20362;-76
2023/08/28 01:44:12;;;;;;;6.47;5.53;;;20.90;99.90;;;;;;5167984;28;20026;-77
2023/08/28 01:46:44;;;;;;;8.32;6.15;;;20.90;99.90;;;;;;5167953;28;20073;-73
2023/08/28 01:49:15;;;;;;;7.88;5.78;;;20.70;99.90;;;;;;5166666;28;20073;-73
2023/08/28 01:51:46;;;;;;;7.30;5.40;;;20.70;99.90;;;;;;5167853;28;20034;-76
2023/08/28 01:54:16;;;;;;;6.00;5.40;;;20.60;99.90;;;;;;5167914;28;20097;-76
2023/08/28 01:56:48;;;;;;;6.03;5.43;;;20.80;99.90;;;;;;5167869;28;20073;-76
2023/08/28 01:59:19;;;;;;;6.85;6.22;;;20.60;99.90;;;;;;5166412;28;20033;-74
2023/08/28 02:01:50;;;;;;;6.57;5.78;;;20.60;99.90;;;;;;5167664;28;20019;-77
2023/08/28 02:04:20;;;;;;;6.70;6.00;;;20.70;99.90;;;;;;5167666;28;20162;-76
2023/08/28 02:06:51;;;;;;;6.07;5.55;;;20.80;99.90;;;;;;5167592;28;20029;-73
2023/08/28 02:09:22;;;;;;;5.47;5.00;;;20.40;99.90;;;;;;5167565;28;20382;-73
2023/08/28 02:11:53;;;;;;;8.05;5.85;;;20.60;99.90;;;;;;5167033;28;20041;-75
2023/08/28 02:14:24;;;;;;;6.13;5.63;;;20.40;99.90;;;;;;5166740;28;20026;-73
2023/08/28 02:16:55;;;;;;;5.70;5.20;;;20.50;99.90;;;;;;5167338;28;20093;-73
2023/08/28 02:19:26;;;;;;;5.60;5.10;;;20.60;99.90;;;;;;5167286;28;20101;-77
2023/08/28 02:21:56;;;;;;;6.25;5.75;;;20.40;99.90;;;;;;5167101;28;20046;-73
2023/08/28 02:24:27;;;;;;;6.10;5.60;;;20.40;99.90;;;;;;5167205;28;20026;-73
2023/08/28 02:27:00;;;;;;;6.93;6.30;;;20.20;99.90;;;;;;5167054;28;20019;-73
2023/08/28 02:29:30;;;;;;;6.68;6.05;;;20.20;99.90;;;;;;5165724;28;20120;-77
2023/08/28 02:32:01;;;;;;;6.60;6.10;;;20.10;99.90;;;;;;5166666;28;20129;-74
2023/08/28 02:34:32;;;;;;;8.05;6.05;;;20.10;99.90;;;;;;5165730;28;20045;-75
2023/08/28 02:37:03;;;;;;;7.93;5.75;;;20.20;99.90;;;;;;5166866;28;20030;-73
2023/08/28 02:39:34;;;;;;;6.40;5.72;;;20.40;99.90;;;;;;5166826;28;20037;-76
2023/08/28 02:42:05;;;;;;;5.80;5.28;;;20.40;99.90;;;;;;5166902;28;20030;-73
2023/08/28 02:44:36;;;;;;;7.00;6.05;;;20.20;99.90;;;;;;5166731;28;20022;-75
2023/08/28 02:47:07;;;;;;;5.50;4.95;;;20.20;99.90;;;;;;5166718;28;20026;-77
2023/08/28 02:49:38;;;;;;;7.05;6.30;;;20.30;99.90;;;;;;5166559;28;20426;-76
2023/08/28 02:52:09;;;;;;;7.28;5.18;;;20.30;99.90;;;;;;5165247;28;20041;-77
2023/08/28 02:54:39;;;;;;;7.20;5.78;;;20.30;99.90;;;;;;5166766;28;20022;-77
2023/08/28 02:57:10;;;;;;;5.50;4.95;;;20.40;99.90;;;;;;5166689;28;20088;-76
2023/08/28 02:59:41;;;;;;;5.97;5.40;;;20.30;99.90;;;;;;5166357;28;20050;-77
2023/08/28 03:02:12;;;;;;;6.10;5.57;;;20.40;99.90;;;;;;5165134;28;20030;-74
2023/08/28 03:04:46;;;;;;;6.43;5.82;;;20.30;99.90;;;;;;5166300;28;20038;-74
2023/08/28 03:07:23;;;;;;;7.50;6.57;;;20.30;99.90;;;;;;5165828;28;20022;-73
2023/08/28 03:09:54;;;;;;;5.25;4.75;;;20.30;99.90;;;;;;5165622;28;20054;-74
2023/08/28 03:12:25;;;;;;;5.85;5.25;;;20.30;99.90;;;;;;5165637;28;20069;-74
2023/08/28 03:14:57;;;;;;;5.60;5.10;;;20.20;99.90;;;;;;5165453;28;20022;-77
2023/08/28 03:17:27;;;;;;;6.57;5.10;;;20.10;99.90;;;;;;5165480;28;20034;-77
2023/08/28 03:19:59;;;;;;;6.93;5.72;;;20.10;99.90;;;;;;5165478;28;20033;-77
2023/08/28 03:22:29;;;;;;;6.15;5.38;;;20.00;99.90;;;;;;5163202;28;20022;-77
2023/08/28 03:25:00;;;;;;;6.70;6.00;;;20.10;99.90;;;;;;5165728;28;20049;-77
2023/08/28 03:27:32;;;;;;;5.45;5.05;;;20.20;99.90;;;;;;5165104;28;20036;-77
2023/08/28 03:30:03;;;;;;;6.63;5.60;;;20.30;99.90;;;;;;5165860;28;20080;-77
2023/08/28 03:32:34;;;;;;;6.30;5.70;;;20.30;99.90;;;;;;5165594;28;20057;-75
2023/08/28 03:35:05;;;;;;;6.25;5.65;;;20.30;99.90;;;;;;5165717;28;20034;-75
2023/08/28 03:37:37;;;;;;;7.25;6.30;;;20.30;99.90;;;;;;5165128;28;20027;-75
2023/08/28 03:40:09;;;;;;;5.95;5.45;;;20.20;99.90;;;;;;5164755;28;20034;-75
2023/08/28 03:42:40;;;;;;;6.78;6.07;;;20.40;99.90;;;;;;5164375;28;20058;-77
2023/08/28 03:45:10;;;;;;;7.07;5.90;;;20.40;99.90;;;;;;5164250;28;20061;-77
2023/08/28 03:47:41;;;;;;;8.00;6.03;;;20.20;99.90;;;;;;5165570;28;20036;-76
2023/08/28 03:50:12;;;;;;;7.10;6.50;;;20.30;99.90;;;;;;5164473;28;20631;-76
2023/08/28 03:52:43;;;;;;;9.40;6.50;;;20.20;99.90;;;;;;5165730;28;20537;-77
2023/08/28 03:55:14;;;;;;;8.25;6.15;;;20.10;99.90;;;;;;5164489;28;20076;-76
2023/08/28 03:57:45;;;;;;;6.97;6.25;;;20.20;99.90;;;;;;5165746;28;20483;-77
2023/08/28 04:00:16;;;;;;;7.20;6.53;;;20.00;99.90;;;;;;5164784;28;20065;-77
2023/08/28 04:02:48;;;;;;;7.10;6.55;;;20.20;99.90;;;;;;5165229;28;20034;-77
2023/08/28 04:05:19;;;;;;;7.72;6.10;;;20.20;99.90;;;;;;5164649;28;20045;-76
2023/08/28 04:07:50;;;;;;;6.57;6.07;;;20.20;99.90;;;;;;5164071;28;20414;-77
2023/08/28 04:10:21;;;;;;;8.20;7.43;;;20.20;99.90;;;;;;5164073;28;20037;-77
2023/08/28 04:12:52;;;;;;;7.60;6.90;;;20.40;99.90;;;;;;5165427;28;20029;-76
2023/08/28 04:15:23;;;;;;;7.50;6.40;;;20.50;99.90;;;;;;5165366;28;20022;-77
2023/08/28 04:17:54;;;;;;;8.27;7.47;;;20.50;99.90;;;;;;5165385;28;20351;-77
2023/08/28 04:20:25;;;;;;;10.75;7.00;;;20.30;99.90;;;;;;5165208;28;20452;-77
2023/08/28 04:22:56;;;;;;;7.22;6.53;;;20.50;99.90;;;;;;5165368;28;20026;-77
2023/08/28 04:25:29;;;;;;;7.65;6.55;;;20.50;99.90;;;;;;5163863;28;20022;-75
2023/08/28 04:28:00;;;;;;;7.30;5.60;;;20.50;99.90;;;;;;5169419;28;20034;-76
2023/08/28 04:30:31;;;;;;;7.25;6.60;;;20.70;99.90;;;;;;5174584;28;20036;-77
2023/08/28 04:33:01;;;;;;;8.98;6.78;;;20.70;99.90;;;;;;5172739;28;20039;-75
2023/08/28 04:35:32;;;;;;;6.47;5.82;;;20.80;99.90;;;;;;5174875;28;20567;-74
2023/08/28 04:38:03;;;;;;;6.40;5.45;;;20.80;99.90;;;;;;5174289;28;20019;-77
2023/08/28 04:40:34;;;;;;;8.00;5.63;;;21.00;99.90;;;;;;5178120;28;20026;-76
2023/08/28 04:43:05;;;;;;;6.60;5.85;;;20.90;99.90;;;;;;5180107;28;20026;-77
2023/08/28 04:45:36;;;;;;;8.05;5.53;;;20.90;99.90;;;;;;5178721;28;20029;-76
2023/08/28 04:48:07;;;;;;;6.20;5.60;;;20.90;99.90;;;;;;5174479;28;20490;-77
2023/08/28 04:50:38;;;;;;;6.38;5.78;;;20.80;99.90;;;;;;5168847;28;20022;-76
2023/08/28 04:53:09;;;;;;;5.95;5.35;;;21.00;99.90;;;;;;5169061;28;20026;-77
2023/08/28 04:55:40;;;;;;;8.25;5.55;;;21.20;99.90;;;;;;5168767;28;20117;-76
2023/08/28 04:58:11;;;;;;;6.15;5.55;;;21.40;99.90;;;;;;5170964;28;20034;-77
2023/08/28 05:00:41;;;;;;;6.15;5.55;;;21.30;99.90;;;;;;5167625;28;20092;-77
2023/08/28 05:03:12;;;;;;;6.25;5.65;;;21.50;99.90;;;;;;5167362;28;20027;-77
2023/08/28 05:05:43;;;;;;;6.45;5.68;;;21.50;99.90;;;;;;5167379;28;20027;-76
2023/08/28 05:08:15;;;;;;;7.53;6.28;;;21.40;99.90;;;;;;5167419;28;20459;-77
2023/08/28 05:10:46;;;;;;;6.93;6.32;;;21.60;99.90;;;;;;5167224;28;20126;-77
2023/08/28 05:13:17;;;;;;;6.70;6.10;;;21.70;99.90;;;;;;5167261;28;20118;-76
2023/08/28 05:15:48;;;;;;;7.50;6.38;;;21.80;99.90;;;;;;5167945;28;20471;-76
2023/08/28 05:18:18;;;;;;;6.40;5.90;;;21.70;99.90;;;;;;5168485;28;20482;-77
2023/08/28 05:20:49;;;;;;;9.57;6.93;;;21.90;99.90;;;;;;5167111;28;20360;-77
2023/08/28 05:23:25;;;;;;;7.65;7.15;;;22.00;99.90;;;;;;5168354;28;20383;-76
2023/08/28 05:25:56;;;;;;;7.45;6.75;;;21.90;99.90;;;;;;5168524;28;20069;-77
2023/08/28 05:28:27;;;;;;;7.88;7.18;;;22.10;99.90;;;;;;5168221;28;20054;-76
2023/08/28 05:30:58;;;;;;;8.85;6.72;;;21.90;99.90;;;;;;5167876;28;20149;-77
2023/08/28 05:33:30;;;;;;;7.85;7.15;;;21.90;99.90;;;;;;5167015;28;20033;-77
2023/08/28 05:36:01;;;;;;;7.65;6.88;;;22.20;99.90;;;;;;5166866;28;20438;-77
2023/08/28 05:38:33;;;;;;;7.28;6.57;;;22.10;99.90;;;;;;5167929;28;20030;-76
2023/08/28 05:41:04;;;;;;;7.25;6.63;;;22.10;99.90;;;;;;5167235;28;20058;-74
2023/08/28 05:43:35;;;;;;;5.97;5.38;;;22.50;99.90;;;;;;5166788;28;20139;-76
2023/08/28 05:46:06;;;;;;;6.63;6.13;;;22.70;99.90;;;;;;5166461;28;20034;-77
2023/08/28 05:48:37;;;;;;;6.70;5.95;;;22.80;99.90;;;;;;5164611;28;20015;-76
2023/08/28 05:51:08;;;;;;;7.00;6.38;;;22.80;99.90;;;;;;5166389;28;20061;-76
2023/08/28 05:53:39;;;;;;;6.88;6.45;;;22.90;99.90;;;;;;5166413;28;20073;-75
2023/08/28 05:56:09;;;;;;;6.68;6.07;;;22.90;99.90;;;;;;5166515;28;20030;-75
2023/08/28 05:58:40;;;;;;;6.85;6.15;;;22.80;99.90;;;;;;5165851;28;20034;-74
2023/08/28 06:01:11;;;;;;;7.00;6.30;;;23.10;99.90;;;;;;5167475;28;20034;-75
2023/08/28 06:03:42;;;;;;;8.25;5.97;;;23.10;99.90;;;;;;5166676;28;20030;-76
2023/08/28 06:06:13;;;;;;;6.80;5.95;;;23.20;99.90;;;;;;5166877;28;20530;-76
2023/08/28 06:08:44;;;;;;;6.53;5.35;;;23.30;99.90;;;;;;5167009;28;20022;-76
2023/08/28 06:11:15;;;;;;;6.22;5.63;;;23.50;99.90;;;;;;5167298;28;20053;-77
2023/08/28 06:13:46;;;;;;;7.85;6.20;;;23.70;99.90;;;;;;5167349;28;20059;-76
2023/08/28 06:16:16;;;;;;;6.47;5.88;;;23.70;99.90;;;;;;5167377;28;20030;-76
2023/08/28 06:18:47;;;;;;;11.30;6.95;;;23.90;99.90;;;;;;5166137;28;20084;-76
2023/08/28 06:21:19;;;;;;;11.10;6.07;;;24.00;99.90;;;;;;5166850;28;20030;-76
2023/08/28 06:23:50;;;;;;;11.57;7.90;;;24.30;99.90;;;;;;5166973;28;20109;-76
2023/08/28 06:26:21;;;;;;;10.73;7.22;;;24.60;99.90;;;;;;5166270;28;20105;-77
2023/08/28 06:28:52;;;;;;;7.40;6.60;;;24.70;99.90;;;;;;5165734;28;20062;-76
2023/08/28 06:31:23;;;;;;;10.55;5.65;;;24.70;99.90;;;;;;5165260;28;20054;-77
2023/08/28 06:33:53;;;;;;;5.85;5.30;;;24.70;99.90;;;;;;5165320;28;20122;-77
2023/08/28 06:36:24;;;;;;;9.07;6.50;;;24.80;99.90;;;;;;5165905;28;20051;-77
2023/08/28 06:38:55;;;;;;;8.23;6.45;;;24.80;99.90;;;;;;5166072;28;20085;-76
2023/08/28 06:41:26;;;;;;;8.95;7.38;;;24.80;99.90;;;;;;5165236;28;20026;-76
2023/08/28 06:43:57;;;;;;;9.27;8.57;;;24.90;99.90;;;;;;5166591;28;20064;-76
2023/08/28 06:46:28;;;;;;;8.02;7.22;;;25.00;99.90;;;;;;5166598;28;20073;-77
2023/08/28 06:48:59;;;;;;;6.70;6.10;;;25.20;99.90;;;;;;5166872;28;20026;-75
2023/08/28 06:51:30;;;;;;;7.45;5.63;;;25.50;99.90;;;;;;5165461;28;20070;-77
2023/08/28 06:54:01;;;;;;;9.95;5.85;;;25.80;99.90;;;;;;5166550;28;20022;-77
2023/08/28 06:56:32;;;;;;;6.53;5.93;;;26.10;99.90;;;;;;5165980;28;20022;-76
2023/08/28 06:59:02;;;;;;;10.25;5.07;;;26.40;99.90;;;;;;5165468;28;20463;-78
2023/08/28 07:01:33;;;;;;;7.20;5.80;;;26.30;99.90;;;;;;5165607;28;20026;-77
2023/08/28 07:04:05;;;;;;;8.65;6.10;;;26.10;99.90;;;;;;5166415;28;20034;-77
2023/08/28 07:06:35;;;;;;;7.78;6.50;;;26.00;99.90;;;;;;5166367;28;20076;-77
2023/08/28 07:09:06;;;;;;;8.23;6.25;;;26.00;99.90;;;;;;5166294;28;20027;-76
2023/08/28 07:11:37;;;;;;;7.63;5.78;;;26.00;99.90;;;;;;5166189;28;20038;-76
2023/08/28 07:14:08;;;;;;;7.22;6.63;;;26.00;99.90;;;;;;5152409;28;20105;-77
2023/08/28 07:16:39;;;;;;;8.43;7.82;;;25.90;99.90;;;;;;5152195;28;20030;-75
2023/08/28 07:19:10;;;;;;;9.38;7.85;;;25.90;99.90;;;;;;5144777;28;20112;-77
2023/08/28 07:21:41;;;;;;;9.80;9.00;;;26.10;99.90;;;;;;5143473;28;20485;-76
2023/08/28 07:24:11;;;;;;;9.88;8.77;;;26.00;99.90;;;;;;5144429;28;20360;-77
2023/08/28 07:26:42;;;;;;;10.27;9.20;;;25.90;99.90;;;;;;5144495;28;20118;-76
2023/08/28 07:29:13;;;;;;;11.50;9.45;;;25.90;99.90;;;;;;5143149;28;20027;-77
2023/08/28 07:31:44;;;;;;;9.95;9.15;;;26.20;99.90;;;;;;5164166;28;20046;-78
2023/08/28 07:34:15;;;;;;;10.07;9.07;;;26.10;99.90;;;;;;5164637;28;20030;-77
2023/08/28 07:36:46;;;;;;;10.82;8.35;;;26.20;99.90;;;;;;5165904;28;20038;-77
2023/08/28 07:39:17;;;;;;;9.23;8.52;;;26.10;99.90;;;;;;5166104;28;20029;-76
2023/08/28 07:41:48;;;;;;;10.20;9.00;;;26.50;99.90;;;;;;5165752;28;20076;-75
2023/08/28 07:44:18;;;;;;;10.95;9.95;;;26.80;99.90;;;;;;5155962;28;20377;-76
2023/08/28 07:46:51;;;;;;;12.02;10.70;;;26.80;99.90;;;;;;5145525;28;20490;-77
2023/08/28 07:49:23;;;;;;;9.93;8.93;;;26.90;99.90;;;;;;5145837;28;20157;-77
2023/08/28 07:51:53;;;;;;;11.63;9.88;;;27.20;99.90;;;;;;5144410;28;20039;-77
2023/08/28 07:54:24;;;;;;;15.60;14.38;;;27.10;99.90;;;;;;5145116;28;20093;-77
2023/08/28 07:56:55;;;;;;;14.02;12.90;;;27.50;99.90;;;;;;5144656;28;20034;-77
2023/08/28 07:59:26;;;;;;;14.68;13.57;;;27.70;99.90;;;;;;5143083;28;20023;-76
2023/08/28 08:01:57;;;;;;;10.50;9.70;;;27.80;99.90;;;;;;5143887;28;20035;-77
2023/08/28 08:04:28;;;;;;;9.57;8.68;;;27.90;99.90;;;;;;5144049;28;20367;-74
2023/08/28 08:07:00;;;;;;;9.15;6.68;;;28.10;99.90;;;;;;5143879;28;20034;-76
2023/08/28 08:09:31;;;;;;;10.00;6.38;;;28.00;99.90;;;;;;5143809;28;20509;-74
2023/08/28 08:12:02;;;;;;;47.75;8.52;;;27.80;99.90;;;;;;5142342;28;20042;-73
2023/08/28 08:14:33;;;;;;;7.72;5.70;;;28.10;99.90;;;;;;5144300;28;20027;-74
2023/08/28 08:17:04;;;;;;;5.43;4.93;;;28.00;99.90;;;;;;5144590;28;20168;-74
2023/08/28 08:19:35;;;;;;;8.90;6.05;;;27.90;99.90;;;;;;5142997;28;20027;-77
2023/08/28 08:22:06;;;;;;;7.80;5.40;;;28.20;99.90;;;;;;5144969;28;20027;-77
2023/08/28 08:24:42;;;;;;;7.03;6.55;;;28.30;99.90;;;;;;5143646;28;20074;-77
2023/08/28 08:27:15;;;;;;;26.25;7.70;;;28.40;99.90;;;;;;5144886;28;20530;-77
2023/08/28 08:29:48;;;;;;;6.50;5.25;;;28.60;99.90;;;;;;5144887;28;20030;-77
2023/08/28 08:32:19;;;;;;;16.77;5.80;;;28.30;99.90;;;;;;5143273;28;20062;-78
2023/08/28 08:34:56;;;;;;;9.20;5.00;;;28.40;99.90;;;;;;5143869;28;20034;-74
2023/08/28 08:37:28;;;;;;;7.57;4.53;;;28.40;99.90;;;;;;5145220;28;20356;-74
2023/08/28 08:40:00;;;;;;;5.38;4.88;;;28.50;99.90;;;;;;5144987;28;20019;-74
2023/08/28 08:42:34;;;;;;;11.10;5.10;;;28.30;99.90;;;;;;5144960;28;20018;-78
2023/08/28 08:45:08;;;;;;;7.15;4.80;;;28.40;99.90;;;;;;5144897;28;20035;-77
2023/08/28 08:47:41;;;;;;;6.05;4.75;;;28.10;99.90;;;;;;5144817;28;20101;-78
2023/08/28 08:50:16;;;;;;;6.07;4.97;;;28.60;99.90;;;;;;5144954;28;20023;-73
2023/08/28 08:52:49;;;;;;;5.10;4.00;;;28.90;99.90;;;;;;5145084;28;20062;-75
2023/08/28 08:55:42;;;;;;;14.05;5.53;;;29.20;99.90;;;;;;5145205;28;20081;-76
2023/08/28 08:58:17;;;;;;;8.50;5.10;;;28.70;99.90;;;;;;5144808;28;20436;-77
2023/08/28 09:00:49;;;;;;;23.33;5.80;;;28.80;99.90;;;;;;5144804;28;20066;-78
2023/08/28 09:03:21;;;;;;;10.20;5.47;;;28.60;99.90;;;;;;5143689;28;20031;-76
2023/08/28 09:05:53;;;;;;;6.40;4.55;;;28.70;99.90;;;;;;5144783;28;20059;-73
2023/08/28 09:08:26;;;;;;;10.43;5.50;;;28.50;99.90;;;;;;5144861;28;20475;-76
2023/08/28 09:11:00;;;;;;;11.00;5.47;;;28.70;99.90;;;;;;5144027;28;20023;-77
2023/08/28 09:13:33;;;;;;;7.55;5.20;;;28.70;99.90;;;;;;5144336;28;20062;-74
2023/08/28 09:16:04;;;;;;;6.90;5.72;;;29.00;99.90;;;;;;5143201;28;20022;-77
2023/08/28 09:18:35;;;;;;;7.25;5.10;;;29.10;99.90;;;;;;5143231;28;20055;-74
2023/08/28 09:21:10;;;;;;;6.00;5.22;;;29.00;99.90;;;;;;5143202;28;20074;-77
2023/08/28 09:23:46;;;;;;;9.05;4.80;;;28.90;99.90;;;;;;5142541;28;20664;-77
2023/08/28 09:26:21;;;;;;;4.03;3.70;;;28.90;99.90;;;;;;5146822;28;20027;-77
2023/08/28 09:29:07;;;;;;;8.75;4.53;;;28.80;99.90;;;;;;5146685;28;20021;-76
2023/08/28 09:31:46;;;;;;;5.95;4.85;;;28.90;99.90;;;;;;5147660;28;20066;-75
2023/08/28 09:34:20;;;;;;;6.07;5.57;;;29.30;99.90;;;;;;5148077;28;20085;-76
2023/08/28 09:36:50;;;;;;;7.07;4.40;;;29.10;99.90;;;;;;5148061;28;20030;-77
2023/08/28 09:39:21;;;;;;;7.68;5.30;;;29.30;99.90;;;;;;5145509;28;20027;-75
2023/08/28 09:41:52;;;;;;;6.63;5.43;;;29.20;99.90;;;;;;5146595;28;20023;-77
2023/08/28 09:44:26;;;;;;;27.52;6.03;;;29.20;99.90;;;;;;5147912;28;20030;-78
2023/08/28 09:46:57;;;;;;;6.75;4.53;;;29.60;99.90;;;;;;5147133;28;20054;-77
2023/08/28 09:49:28;;;;;;;6.55;4.22;;;29.40;99.90;;;;;;5147276;28;20027;-77
2023/08/28 09:52:00;;;;;;;6.57;3.90;;;29.40;99.90;;;;;;5147401;28;20043;-77
2023/08/28 09:54:31;;;;;;;7.22;4.60;;;29.30;99.90;;;;;;5147604;28;20336;-78
2023/08/28 09:57:16;;;;;;;19.13;5.38;;;29.00;99.90;;;;;;5147673;28;20038;-78
2023/08/28 09:59:47;;;;;;;10.73;4.72;;;29.20;99.90;;;;;;5146652;28;20058;-78
2023/08/28 10:02:21;;;;;;;4.15;3.80;;;29.30;99.90;;;;;;5146767;28;20062;-78
2023/08/28 10:04:53;;;;;;;7.20;5.05;;;29.70;99.90;;;;;;5146158;28;20146;-77
2023/08/28 10:07:24;;;;;;;7.50;4.05;;;29.60;99.90;;;;;;5146289;28;20050;-77
2023/08/28 10:09:59;;;;;;;6.72;3.97;;;29.60;99.90;;;;;;5146036;28;20034;-78
2023/08/28 10:12:30;;;;;;;6.88;4.03;;;30.00;99.90;;;;;;5145978;28;20507;-78
2023/08/28 10:15:04;;;;;;;19.25;4.97;;;29.80;99.90;;;;;;5145972;28;20110;-78
2023/08/28 10:17:36;;;;;;;6.47;5.82;;;30.00;99.90;;;;;;5146650;28;20034;-79
2023/08/28 10:20:10;;;;;;;9.90;6.40;;;30.00;99.90;;;;;;5146222;28;20026;-78
2023/08/28 10:22:45;;;;;;;8.82;6.90;;;30.00;99.90;;;;;;5146252;28;20380;-77
2023/08/28 10:25:16;;;;;;;11.52;7.68;;;30.00;99.90;;;;;;5147101;28;20035;-76
2023/08/28 10:27:49;;;;;;;13.85;8.82;;;30.30;99.90;;;;;;5146862;28;20034;-77
2023/08/28 10:30:21;;;;;;;9.45;8.65;;;30.20;99.90;;;;;;5146808;28;20034;-74
2023/08/28 10:32:55;;;;;;;11.57;8.27;;;30.40;99.90;;;;;;5146757;28;20055;-74
2023/08/28 10:35:27;;;;;;;11.07;8.93;;;30.30;99.90;;;;;;5146856;28;20026;-77
2023/08/28 10:37:59;;;;;;;39.40;9.18;;;30.60;99.90;;;;;;5146736;28;20439;-77
2023/08/28 10:40:31;;;;;;;7.40;6.43;;;30.70;99.90;;;;;;5146577;28;20077;-75
2023/08/28 10:43:02;;;;;;;11.05;4.88;;;30.80;99.90;;;;;;5145431;28;20019;-76
2023/08/28 10:45:38;;;;;;;8.30;4.40;;;30.70;99.90;;;;;;5145306;28;20046;-77
2023/08/28 10:48:09;;;;;;;5.22;4.50;;;30.30;99.90;;;;;;5145337;28;20027;-75
2023/08/28 10:50:40;;;;;;;5.20;3.88;;;30.20;99.90;;;;;;5145215;28;20054;-78
2023/08/28 10:53:16;;;;;;;13.93;4.95;;;30.10;99.90;;;;;;5145266;28;20023;-77
2023/08/28 10:55:59;;;;;;;6.88;5.43;;;30.20;99.90;;;;;;5145054;28;20030;-78
2023/08/28 10:58:31;;;;;;;10.50;5.18;;;30.00;99.90;;;;;;5146300;28;20034;-78
2023/08/28 11:01:15;;;;;;;11.98;5.50;;;30.20;99.90;;;;;;5146258;28;20085;-75
2023/08/28 11:04:15;;;;;;;8.77;5.00;;;30.40;99.90;;;;;;5146292;28;20030;-75
2023/08/28 11:06:47;;;;;;;15.90;6.03;;;30.20;99.90;;;;;;5146168;28;20031;-77
2023/08/28 11:09:29;;;;;;;8.02;6.63;;;30.10;99.90;;;;;;5146067;28;20019;-78
2023/08/28 11:12:00;;;;;;;7.72;7.00;;;30.20;99.90;;;;;;5145998;28;20049;-77
2023/08/28 11:14:34;;;;;;;9.30;6.40;;;30.30;99.90;;;;;;5146366;28;20023;-75
2023/08/28 11:17:05;;;;;;;6.22;4.50;;;30.60;99.90;;;;;;5161140;28;20487;-76
2023/08/28 11:19:54;;;;;;;9.48;4.10;;;30.40;99.90;;;;;;5166312;28;20081;-76
2023/08/28 11:22:28;;;;;;;;;;;30.30;99.90;;;;;;5166716;28;20041;-79
2023/08/28 11:25:00;;;;;;;7.60;5.57;;;29.90;99.90;;;;;;5166099;28;20305;-79
2023/08/28 11:27:33;;;;;;;9.65;5.07;;;30.40;99.90;;;;;;5166013;28;20050;-79
2023/08/28 11:30:05;;;;;;;8.23;4.63;;;30.70;99.90;;;;;;5164641;28;20030;-78
2023/08/28 11:32:38;;;;;;;7.75;4.65;;;30.20;99.90;;;;;;5165567;28;20402;-79
2023/08/28 11:35:13;;;;;;;6.53;4.72;;;29.90;99.90;;;;;;5165032;28;20031;-78
2023/08/28 11:37:47;;;;;;;7.10;4.25;;;30.40;99.90;;;;;;5165212;28;20080;-77
2023/08/28 11:40:19;;;;;;;6.72;4.57;;;30.20;99.90;;;;;;5164490;28;20109;-77
2023/08/28 11:43:15;;;;;;;5.32;4.40;;;30.20;99.90;;;;;;5164333;28;20065;-77
2023/08/28 11:45:46;;;;;;;7.00;4.07;;;30.50;99.90;;;;;;5164414;28;20113;-79
2023/08/28 11:48:16;;;;;;;5.32;3.88;;;30.20;99.90;;;;;;5163867;28;20421;-79
2023/08/28 11:50:47;;;;;;;5.70;4.70;;;30.20;99.90;;;;;;5164121;28;20041;-77
2023/08/28 11:53:28;;;;;;;10.15;4.38;;;30.40;99.90;;;;;;5163683;28;20068;-79
2023/08/28 11:56:01;;;;;;;6.43;4.05;;;30.70;99.90;;;;;;5165589;28;20022;-78
2023/08/28 11:58:37;;;;;;;5.03;4.00;;;30.30;99.90;;;;;;5165422;28;20034;-76
2023/08/28 12:01:08;;;;;;;5.28;4.57;;;30.30;99.90;;;;;;5165509;28;20038;-78
2023/08/28 12:03:42;;;;;;;13.50;4.45;;;30.30;99.90;;;;;;5165419;28;20176;-78
2023/08/28 12:06:17;;;;;;;6.32;4.07;;;30.40;99.90;;;;;;5165314;28;20030;-78
2023/08/28 12:08:48;;;;;;;6.57;4.18;;;30.60;99.90;;;;;;5165363;28;20062;-74
2023/08/28 12:11:19;;;;;;;6.70;4.25;;;30.30;99.90;;;;;;5164989;28;20128;-77
2023/08/28 12:13:54;;;;;;;8.07;4.85;;;29.90;99.90;;;;;;5165025;28;20041;-77
2023/08/28 12:16:25;;;;;;;4.40;4.00;;;30.40;99.90;;;;;;5164936;28;20038;-74
2023/08/28 12:18:56;;;;;;;6.82;4.70;;;30.40;99.90;;;;;;5163790;28;20033;-78
2023/08/28 12:21:36;;;;;;;5.20;4.72;;;30.60;99.90;;;;;;5162536;28;20026;-77
2023/08/28 12:24:11;;;;;;;11.00;4.72;;;30.80;99.90;;;;;;5163806;28;20042;-76
2023/08/28 12:26:43;;;;;;;11.80;4.65;;;30.50;99.90;;;;;;5163715;28;20030;-75
2023/08/28 12:29:14;;;;;;;8.27;4.55;;;30.70;99.90;;;;;;5163554;28;20077;-77
2023/08/28 12:31:47;;;;;;;6.43;4.45;;;30.30;99.90;;;;;;5163611;28;20410;-77
2023/08/28 12:34:19;;;;;;;6.57;4.70;;;30.50;99.90;;;;;;5165005;28;20126;-76
2023/08/28 12:36:50;;;;;;;7.65;4.25;;;30.60;99.90;;;;;;5165042;28;20042;-78
2023/08/28 12:39:21;;;;;;;8.18;5.07;;;30.70;99.90;;;;;;5165017;28;20076;-77
2023/08/28 12:41:55;;;;;;;9.25;5.00;;;30.40;99.90;;;;;;5163975;28;20037;-76
2023/08/28 12:44:27;;;;;;;7.68;5.32;;;29.80;99.90;;;;;;5165213;28;20494;-76
2023/08/28 12:46:59;;;;;;;8.88;4.38;;;29.90;99.90;;;;;;5161375;28;20102;-78
2023/08/28 12:49:30;;;;;;;8.52;4.45;;;30.10;99.90;;;;;;5158129;28;20085;-77
2023/08/28 12:52:01;;;;;;;8.18;4.30;;;30.00;99.90;;;;;;5153454;28;20050;-77
2023/08/28 12:54:32;;;;;;;8.50;4.38;;;30.20;99.90;;;;;;5143443;28;20443;-77
2023/08/28 12:57:04;;;;;;;7.20;5.13;;;30.20;99.90;;;;;;5144601;28;20074;-77
2023/08/28 12:59:35;;;;;;;8.82;5.40;;;30.00;99.90;;;;;;5146691;28;20418;-77
2023/08/28 13:02:06;;;;;;;6.70;4.68;;;30.20;99.90;;;;;;5147273;28;20035;-77
2023/08/28 13:04:41;;;;;;;4.85;3.88;;;30.20;99.90;;;;;;5148647;28;20031;-77
2023/08/28 13:07:14;;;;;;;10.50;4.57;;;30.00;99.90;;;;;;5150989;28;20050;-77
2023/08/28 13:09:46;;;;;;;7.05;4.93;;;30.10;99.90;;;;;;5168117;28;20490;-78
2023/08/28 13:12:18;;;;;;;7.30;5.22;;;30.00;99.90;;;;;;5168249;28;20041;-77